Time;durP1;ratioP1;P1;durP2;ratioP2;P2;SDS_P1;SDS_P2;PMS_P1;PMS_P2;Temp;Humidity;BMP_temperature;BMP_pressure;BME280_temperature;BME280_humidity;BME280_pressure;Samples;Min_cycle;Max_cycle;Signal;HPM_P1;HPM_P2
2023/12/03 00:00:10;;;;;;;;;;;19.30;36.90;;;;;;5087445;28;19932;-52
2023/12/03 00:02:37;;;;;;;;;;;19.20;36.80;;;;;;5102277;28;19953;-54
2023/12/03 00:05:04;;;;;;;;;;;19.20;36.80;;;;;;5092673;28;19931;-55
2023/12/03 00:07:31;;;;;;;;;;;19.30;36.80;;;;;;5113788;28;19967;-56
2023/12/03 00:09:58;;;;;;;;;;;19.20;36.70;;;;;;5113490;28;19928;-54
2023/12/03 00:12:26;;;;;;;;;;;19.30;36.80;;;;;;5095330;28;19924;-56
2023/12/03 00:14:53;;;;;;;;;;;19.20;36.70;;;;;;5095659;28;20174;-52
2023/12/03 00:17:19;;;;;;;;;;;19.20;36.70;;;;;;5089833;28;19924;-54
2023/12/03 00:19:46;;;;;;;;;;;19.20;36.70;;;;;;5094618;28;19924;-55
2023/12/03 00:22:13;;;;;;;;;;;19.20;36.70;;;;;;5088503;28;19943;-56
2023/12/03 00:24:40;;;;;;;;;;;19.20;36.70;;;;;;5104764;28;19928;-54
2023/12/03 00:27:07;;;;;;;;;;;19.20;36.70;;;;;;5094738;28;19928;-57
2023/12/03 00:29:35;;;;;;;;;;;19.20;36.70;;;;;;5112850;28;19923;-55
2023/12/03 00:32:02;;;;;;;;;;;19.20;36.70;;;;;;5094411;28;19928;-54
2023/12/03 00:34:28;;;;;;;;;;;19.20;36.70;;;;;;5095251;28;19924;-55
2023/12/03 00:36:55;;;;;;;;;;;19.20;36.70;;;;;;5094636;28;19969;-56
2023/12/03 00:39:22;;;;;;;;;;;19.20;36.70;;;;;;5090059;28;19927;-54
2023/12/03 00:41:49;;;;;;;;;;;19.20;36.70;;;;;;5093002;28;19973;-54
2023/12/03 00:44:15;;;;;;;;;;;19.20;36.70;;;;;;5094471;28;19923;-55
2023/12/03 00:46:44;;;;;;;;;;;19.20;36.70;;;;;;5099262;28;19923;-55
2023/12/03 00:49:11;;;;;;;;;;;19.20;36.70;;;;;;5083936;28;19932;-54
2023/12/03 00:51:38;;;;;;;;;;;19.20;36.70;;;;;;5103331;28;20465;-57
2023/12/03 00:54:04;;;;;;;;;;;19.20;36.70;;;;;;5094236;28;19928;-51
2023/12/03 00:56:31;;;;;;;;;;;19.10;36.60;;;;;;5093753;28;19984;-50
2023/12/03 00:58:58;;;;;;;;;;;19.20;36.70;;;;;;5094688;28;20250;-57
2023/12/03 01:01:25;;;;;;;;;;;19.10;36.60;;;;;;5112523;28;19945;-53
2023/12/03 01:03:53;;;;;;;;;;;19.10;36.50;;;;;;5101763;28;19924;-52
2023/12/03 01:06:20;;;;;;;;;;;19.20;36.60;;;;;;5096559;28;19931;-55
2023/12/03 01:08:46;;;;;;;;;;;19.20;36.60;;;;;;5113089;28;19924;-56
2023/12/03 01:11:13;;;;;;;;;;;19.10;36.50;;;;;;5102977;28;19930;-52
2023/12/03 01:13:40;;;;;;;;;;;19.20;36.60;;;;;;5091750;28;19927;-56
2023/12/03 01:16:14;;;;;;;;;;;19.20;36.60;;;;;;5107812;28;19931;-55
2023/12/03 01:18:41;;;;;;;;;;;19.20;36.60;;;;;;5095332;28;19931;-54
2023/12/03 01:21:09;;;;;;;;;;;19.10;36.50;;;;;;5120443;28;19927;-58
2023/12/03 01:23:36;;;;;;;;;;;19.10;36.50;;;;;;5094921;28;19924;-57
2023/12/03 01:26:02;;;;;;;;;;;19.10;36.50;;;;;;5114300;28;19973;-55
2023/12/03 01:28:29;;;;;;;;;;;19.10;36.50;;;;;;5114459;28;19946;-54
2023/12/03 01:30:56;;;;;;;;;;;19.10;36.50;;;;;;5116812;28;19931;-55
2023/12/03 01:33:23;;;;;;;;;;;19.10;36.60;;;;;;5098722;28;19931;-53
2023/12/03 01:35:50;;;;;;;;;;;19.10;36.50;;;;;;5112910;28;19935;-53
2023/12/03 01:38:18;;;;;;;;;;;19.10;36.60;;;;;;5098569;28;19997;-55
2023/12/03 01:40:51;;;;;;;;;;;19.10;36.50;;;;;;5097435;28;19928;-56
2023/12/03 01:43:18;;;;;;;;;;;19.10;36.50;;;;;;5098663;28;19928;-56
2023/12/03 01:45:45;;;;;;;;;;;19.10;36.50;;;;;;5116801;28;19963;-52
2023/12/03 01:48:12;;;;;;;;;;;19.10;36.50;;;;;;5098439;28;20390;-55
2023/12/03 01:50:39;;;;;;;;;;;19.10;36.50;;;;;;5096887;28;19931;-55
2023/12/03 01:53:06;;;;;;;;;;;19.10;36.50;;;;;;5098122;28;19931;-53
2023/12/03 01:55:34;;;;;;;;;;;19.10;36.50;;;;;;5105903;28;19924;-55
2023/12/03 01:58:01;;;;;;;;;;;19.10;36.50;;;;;;5098209;28;19973;-54
2023/12/03 02:00:28;;;;;;;;;;;19.10;36.50;;;;;;5103765;27;19932;-53
2023/12/03 02:02:55;;;;;;;;;;;19.10;36.50;;;;;;5103814;27;19931;-56
2023/12/03 02:05:21;;;;;;;;;;;19.10;36.50;;;;;;5107230;28;19967;-53
2023/12/03 02:07:48;;;;;;;;;;;19.10;36.50;;;;;;5104388;27;20398;-56
2023/12/03 02:10:15;;;;;;;;;;;19.10;36.50;;;;;;5096998;28;19928;-57
2023/12/03 02:12:43;;;;;;;;;;;19.10;36.50;;;;;;5105057;27;19924;-54
2023/12/03 02:15:10;;;;;;;;;;;19.10;36.50;;;;;;5107121;27;19928;-52
2023/12/03 02:17:37;;;;;;;;;;;19.10;36.50;;;;;;5103620;27;19928;-57
2023/12/03 02:20:04;;;;;;;;;;;19.10;36.50;;;;;;5110089;27;19931;-55
2023/12/03 02:22:31;;;;;;;;;;;19.10;36.50;;;;;;5107427;28;19927;-57
2023/12/03 02:24:59;;;;;;;;;;;19.10;36.50;;;;;;5120642;27;19931;-55
2023/12/03 02:27:26;;;;;;;;;;;19.10;36.40;;;;;;5103470;27;19928;-56
2023/12/03 02:29:53;;;;;;;;;;;19.10;36.40;;;;;;5125909;27;19924;-56
2023/12/03 02:32:20;;;;;;;;;;;19.10;36.40;;;;;;5120298;27;19931;-55
2023/12/03 02:34:46;;;;;;;;;;;19.10;36.40;;;;;;5098578;28;19924;-54
2023/12/03 02:37:13;;;;;;;;;;;19.10;36.40;;;;;;5116254;27;19923;-55
2023/12/03 02:39:40;;;;;;;;;;;19.10;36.40;;;;;;5098832;28;19923;-54
2023/12/03 02:42:08;;;;;;;;;;;19.10;36.40;;;;;;5097543;27;19976;-57
2023/12/03 02:44:35;;;;;;;;;;;19.10;36.40;;;;;;5084589;27;19982;-56
2023/12/03 02:47:02;;;;;;;;;;;19.00;36.30;;;;;;5097689;27;19923;-53
2023/12/03 02:49:29;;;;;;;;;;;19.00;36.30;;;;;;5100306;27;19927;-52
2023/12/03 02:51:55;;;;;;;;;;;19.00;36.30;;;;;;5098281;27;20434;-55
2023/12/03 02:54:22;;;;;;;;;;;19.10;36.40;;;;;;5096390;27;19981;-53
2023/12/03 02:56:49;;;;;;;;;;;19.10;36.30;;;;;;5095974;28;19923;-55
2023/12/03 02:59:17;;;;;;;;;;;19.10;36.30;;;;;;5101746;27;19924;-57
2023/12/03 03:01:44;;;;;;;;;;;19.00;36.20;;;;;;5117971;27;19924;-58
2023/12/03 03:04:11;;;;;;;;;;;19.10;36.30;;;;;;5100640;27;19924;-55
2023/12/03 03:06:37;;;;;;;;;;;19.10;36.30;;;;;;5097390;28;19980;-54
2023/12/03 03:09:04;;;;;;;;;;;19.10;36.30;;;;;;5097022;27;19935;-55
2023/12/03 03:11:31;;;;;;;;;;;19.10;36.30;;;;;;5100043;28;19923;-56
2023/12/03 03:13:58;;;;;;;;;;;19.00;36.20;;;;;;5095750;27;19931;-52
2023/12/03 03:16:26;;;;;;;;;;;19.10;36.20;;;;;;5095931;27;19931;-56
2023/12/03 03:18:54;;;;;;;;;;;19.00;36.10;;;;;;5097763;28;19927;-55
2023/12/03 03:21:21;;;;;;;;;;;19.00;36.20;;;;;;5095947;28;19946;-55
2023/12/03 03:23:47;;;;;;;;;;;19.00;36.10;;;;;;5100114;28;19935;-53
2023/12/03 03:26:14;;;;;;;;;;;19.10;36.20;;;;;;5098547;27;19970;-52
2023/12/03 03:28:41;;;;;;;;;;;19.00;36.10;;;;;;5114649;27;19923;-53
2023/12/03 03:31:08;;;;;;;;;;;19.00;36.10;;;;;;5112683;27;19931;-54
2023/12/03 03:33:36;;;;;;;;;;;19.00;36.10;;;;;;5120005;27;19923;-55
2023/12/03 03:36:03;;;;;;;;;;;19.00;36.10;;;;;;5101582;28;19928;-56
2023/12/03 03:38:30;;;;;;;;;;;19.00;36.10;;;;;;5106361;27;19935;-56
2023/12/03 03:40:57;;;;;;;;;;;19.00;36.10;;;;;;5102805;27;19931;-53
2023/12/03 03:43:24;;;;;;;;;;;19.00;36.10;;;;;;5087763;27;19934;-55
2023/12/03 03:45:51;;;;;;;;;;;19.00;36.10;;;;;;5120221;27;19924;-57
2023/12/03 03:48:18;;;;;;;;;;;19.00;36.10;;;;;;5100395;27;19924;-55
2023/12/03 03:50:46;;;;;;;;;;;19.00;36.10;;;;;;5104671;28;19931;-54
2023/12/03 03:53:13;;;;;;;;;;;19.00;36.10;;;;;;5121757;27;19923;-54
2023/12/03 03:55:39;;;;;;;;;;;19.00;36.10;;;;;;5098325;28;19939;-55
2023/12/03 03:58:06;;;;;;;;;;;19.00;36.10;;;;;;5120416;27;19934;-55
2023/12/03 04:00:33;;;;;;;;;;;19.00;36.00;;;;;;5103525;27;19923;-51
2023/12/03 04:03:00;;;;;;;;;;;19.00;36.00;;;;;;5101922;28;19928;-56
2023/12/03 04:05:26;;;;;;;;;;;19.00;36.00;;;;;;5107453;27;19927;-57
2023/12/03 04:07:55;;;;;;;;;;;19.00;36.00;;;;;;5109248;27;19924;-54
2023/12/03 04:10:22;;;;;;;;;;;19.00;36.00;;;;;;5101663;27;19930;-52
2023/12/03 04:12:48;;;;;;;;;;;19.00;36.00;;;;;;5102145;27;19985;-57
2023/12/03 04:15:16;;;;;;;;;;;19.00;36.00;;;;;;5095183;28;19969;-58
2023/12/03 04:17:43;;;;;;;;;;;19.00;36.60;;;;;;5107478;27;19929;-53
2023/12/03 04:20:10;;;;;;;;;;;19.00;36.00;;;;;;5117998;27;19931;-55
2023/12/03 04:22:37;;;;;;;;;;;19.00;36.00;;;;;;5102730;27;19928;-58
2023/12/03 04:25:06;;;;;;;;;;;19.00;36.00;;;;;;5102368;27;19932;-56
2023/12/03 04:27:33;;;;;;;;;;;19.00;36.00;;;;;;5105433;27;19967;-54
2023/12/03 04:30:00;;;;;;;;;;;19.00;36.00;;;;;;5105828;27;19927;-55
2023/12/03 04:32:26;;;;;;;;;;;19.00;35.90;;;;;;5104229;27;19963;-55
2023/12/03 04:34:53;;;;;;;;;;;19.00;35.90;;;;;;5115039;27;19924;-56
2023/12/03 04:37:20;;;;;;;;;;;19.00;35.90;;;;;;5096206;28;20416;-54
2023/12/03 04:39:47;;;;;;;;;;;19.00;35.90;;;;;;5098577;27;19938;-51
2023/12/03 04:42:15;;;;;;;;;;;19.00;35.90;;;;;;5106433;27;19928;-54
2023/12/03 04:44:42;;;;;;;;;;;19.00;35.90;;;;;;5100275;27;19983;-54
2023/12/03 04:47:08;;;;;;;;;;;19.00;35.90;;;;;;5106346;27;19923;-57
2023/12/03 04:49:35;;;;;;;;;;;19.00;35.90;;;;;;5106577;28;19928;-58
2023/12/03 04:52:02;;;;;;;;;;;19.00;35.90;;;;;;5109923;27;19924;-55
2023/12/03 04:54:29;;;;;;;;;;;19.00;35.90;;;;;;5103058;28;19931;-53
2023/12/03 04:56:56;;;;;;;;;;;19.00;35.90;;;;;;5092136;28;19931;-51
2023/12/03 04:59:24;;;;;;;;;;;19.00;36.00;;;;;;5100725;28;19930;-53
2023/12/03 05:01:51;;;;;;;;;;;19.00;36.00;;;;;;5097583;28;19989;-54
2023/12/03 05:04:17;;;;;;;;;;;19.00;36.00;;;;;;5106347;27;19931;-55
2023/12/03 05:06:44;;;;;;;;;;;19.00;36.00;;;;;;5100493;28;19920;-55
2023/12/03 05:09:11;;;;;;;;;;;19.00;36.00;;;;;;5100147;28;19935;-55
2023/12/03 05:11:39;;;;;;;;;;;19.00;36.00;;;;;;5116973;27;19935;-54
2023/12/03 05:14:06;;;;;;;;;;;19.00;36.10;;;;;;5098885;28;19923;-55
2023/12/03 05:16:34;;;;;;;;;;;19.00;36.10;;;;;;5094359;28;19928;-56
2023/12/03 05:19:01;;;;;;;;;;;19.00;36.10;;;;;;5099237;28;19927;-54
2023/12/03 05:21:28;;;;;;;;;;;19.00;36.10;;;;;;5102428;27;19931;-57
2023/12/03 05:23:54;;;;;;;;;;;19.00;36.10;;;;;;5124862;28;19923;-55
2023/12/03 05:26:21;;;;;;;;;;;19.00;36.10;;;;;;5122001;28;19931;-53
2023/12/03 05:28:48;;;;;;;;;;;19.00;36.10;;;;;;5105555;28;19931;-56
2023/12/03 05:31:15;;;;;;;;;;;19.00;36.10;;;;;;5108591;28;19930;-55
2023/12/03 05:33:43;;;;;;;;;;;19.00;36.70;;;;;;5091097;28;19923;-56
2023/12/03 05:36:19;;;;;;;;;;;19.00;36.10;;;;;;5100253;28;19959;-55
2023/12/03 05:38:46;;;;;;;;;;;19.00;36.10;;;;;;5099614;28;19924;-54
2023/12/03 05:41:13;;;;;;;;;;;19.00;36.10;;;;;;5094680;28;19991;-57
2023/12/03 05:43:40;;;;;;;;;;;19.00;36.10;;;;;;5099215;28;19935;-54
2023/12/03 05:46:07;;;;;;;;;;;19.00;36.10;;;;;;5095713;28;19957;-54
2023/12/03 05:48:33;;;;;;;;;;;19.00;36.70;;;;;;5098801;28;19924;-57
2023/12/03 05:51:01;;;;;;;;;;;19.00;36.10;;;;;;5103751;28;20315;-54
2023/12/03 05:53:28;;;;;;;;;;;19.00;36.10;;;;;;5094518;28;19924;-55
2023/12/03 05:55:55;;;;;;;;;;;19.00;36.10;;;;;;5118009;28;19927;-58
2023/12/03 05:58:22;;;;;;;;;;;19.00;36.10;;;;;;5090554;28;19931;-56
2023/12/03 06:00:49;;;;;;;;;;;19.00;36.10;;;;;;5108823;28;20030;-56
2023/12/03 06:03:15;;;;;;;;;;;19.00;36.10;;;;;;5091702;28;19935;-58
2023/12/03 06:05:42;;;;;;;;;;;19.00;36.10;;;;;;5115976;28;19950;-56
2023/12/03 06:08:10;;;;;;;;;;;19.00;36.10;;;;;;5115500;28;19927;-53
2023/12/03 06:10:37;;;;;;;;;;;19.00;36.10;;;;;;5081366;28;19958;-57
2023/12/03 06:13:04;;;;;;;;;;;18.90;36.00;;;;;;5084812;28;19936;-56
2023/12/03 06:15:31;;;;;;;;;;;18.90;36.00;;;;;;5095843;28;19932;-55
2023/12/03 06:17:58;;;;;;;;;;;19.00;36.10;;;;;;5101523;27;19980;-54
2023/12/03 06:20:25;;;;;;;;;;;18.90;36.00;;;;;;5102601;28;19928;-55
2023/12/03 06:22:52;;;;;;;;;;;19.00;36.10;;;;;;5100696;27;20089;-55
2023/12/03 06:25:20;;;;;;;;;;;19.00;36.10;;;;;;5108972;28;19931;-55
2023/12/03 06:27:47;;;;;;;;;;;18.90;36.00;;;;;;5097752;27;19923;-57
2023/12/03 06:30:14;;;;;;;;;;;19.00;36.10;;;;;;5099839;28;19928;-57
2023/12/03 06:32:41;;;;;;;;;;;19.00;36.10;;;;;;5097464;27;19927;-54
2023/12/03 06:35:08;;;;;;;;;;;19.00;36.10;;;;;;5098238;28;19928;-57
2023/12/03 06:37:34;;;;;;;;;;;19.00;36.10;;;;;;5100357;27;19934;-55
2023/12/03 06:40:02;;;;;;;;;;;19.00;36.00;;;;;;5102710;28;19931;-56
2023/12/03 06:42:30;;;;;;;;;;;18.90;35.90;;;;;;5107656;27;19924;-54
2023/12/03 06:44:57;;;;;;;;;;;19.00;36.00;;;;;;5103942;27;19923;-55
2023/12/03 06:47:24;;;;;;;;;;;19.00;36.00;;;;;;5125513;27;19930;-55
2023/12/03 06:49:51;;;;;;;;;;;19.00;36.00;;;;;;5096832;28;19931;-51
2023/12/03 06:52:18;;;;;;;;;;;18.90;35.80;;;;;;5101147;28;19931;-55
2023/12/03 06:54:45;;;;;;;;;;;19.00;36.50;;;;;;5096539;28;19935;-52
2023/12/03 06:57:11;;;;;;;;;;;19.00;36.00;;;;;;5103606;27;19931;-56
2023/12/03 06:59:40;;;;;;;;;;;19.00;35.90;;;;;;5125410;27;19927;-57
2023/12/03 07:02:06;;;;;;;;;;;19.00;35.90;;;;;;5101689;27;19946;-54
2023/12/03 07:04:33;;;;;;;;;;;19.00;35.90;;;;;;5103224;28;19931;-55
2023/12/03 07:07:00;;;;;;;;;;;18.90;35.80;;;;;;5103180;27;20009;-56
2023/12/03 07:09:27;;;;;;;;;;;19.00;35.90;;;;;;5102396;28;19923;-56
2023/12/03 07:11:54;;;;;;;;;;;18.90;35.80;;;;;;5080923;28;19966;-53
2023/12/03 07:14:21;;;;;;;;;;;19.00;35.90;;;;;;5102318;27;19931;-54
2023/12/03 07:16:49;;;;;;;;;;;19.00;35.90;;;;;;5099163;27;19923;-52
2023/12/03 07:19:15;;;;;;;;;;;18.90;35.80;;;;;;5112655;27;19932;-51
2023/12/03 07:21:42;;;;;;;;;;;19.00;35.90;;;;;;5095901;28;19924;-51
2023/12/03 07:24:09;;;;;;;;;;;19.00;35.90;;;;;;5096449;28;19931;-52
2023/12/03 07:26:36;;;;;;;;;;;18.90;35.80;;;;;;5097094;28;19931;-52
2023/12/03 07:29:03;;;;;;;;;;;18.90;35.80;;;;;;5101638;28;19932;-54
2023/12/03 07:31:31;;;;;;;;;;;19.00;35.90;;;;;;5098430;28;19989;-55
2023/12/03 07:33:59;;;;;;;;;;;19.00;35.80;;;;;;5083930;28;19927;-54
2023/12/03 07:36:26;;;;;;;;;;;19.00;35.80;;;;;;5094229;28;19923;-50
2023/12/03 07:38:53;;;;;;;;;;;18.90;35.70;;;;;;5094970;28;19985;-53
2023/12/03 07:41:20;;;;;;;;;;;18.90;35.60;;;;;;5096905;28;19924;-56
2023/12/03 07:43:46;;;;;;;;;;;18.90;35.60;;;;;;5095958;28;19972;-57
2023/12/03 07:46:17;;;;;;;;;;;18.90;35.60;;;;;;5095479;28;19931;-54
2023/12/03 07:48:43;;;;;;;;;;;18.90;35.60;;;;;;5112315;28;19923;-51
2023/12/03 07:51:11;;;;;;;;;;;18.90;35.50;;;;;;5090390;28;19931;-51
2023/12/03 07:53:39;;;;;;;;;;;18.90;35.50;;;;;;5097098;28;19962;-51
2023/12/03 07:56:07;;;;;;;;;;;18.90;35.50;;;;;;5101644;28;19928;-53
2023/12/03 07:58:34;;;;;;;;;;;18.90;35.50;;;;;;5102176;28;19931;-53
2023/12/03 08:01:01;;;;;;;;;;;18.90;35.50;;;;;;5111334;28;19932;-53
2023/12/03 08:03:27;;;;;;;;;;;18.90;35.40;;;;;;5098837;28;19928;-52
2023/12/03 08:05:54;;;;;;;;;;;18.90;35.40;;;;;;5099137;28;19927;-54
2023/12/03 08:08:22;;;;;;;;;;;18.90;35.40;;;;;;5098915;28;19973;-54
2023/12/03 08:10:49;;;;;;;;;;;18.90;35.40;;;;;;5105578;28;19995;-51
2023/12/03 08:13:16;;;;;;;;;;;18.90;35.40;;;;;;5096945;28;19973;-52
2023/12/03 08:15:42;;;;;;;;;;;18.90;35.40;;;;;;5097567;28;19931;-52
2023/12/03 08:18:09;;;;;;;;;;;18.90;35.50;;;;;;5112384;28;19977;-53
2023/12/03 08:20:36;;;;;;;;;;;18.90;35.50;;;;;;5094070;28;19938;-50
2023/12/03 08:23:03;;;;;;;;;;;18.90;35.50;;;;;;5094351;28;19924;-53
2023/12/03 08:25:31;;;;;;;;;;;18.90;35.50;;;;;;5099417;28;19938;-51
2023/12/03 08:27:58;;;;;;;;;;;18.90;35.50;;;;;;5110175;27;19927;-54
2023/12/03 08:30:25;;;;;;;;;;;18.90;35.50;;;;;;5099806;28;19934;-53
2023/12/03 08:32:52;;;;;;;;;;;18.90;35.50;;;;;;5102850;28;19924;-55
2023/12/03 08:35:19;;;;;;;;;;;18.90;35.50;;;;;;5104630;28;19973;-53
2023/12/03 08:37:46;;;;;;;;;;;18.90;35.50;;;;;;5099019;28;19940;-55
2023/12/03 08:40:15;;;;;;;;;;;18.90;35.50;;;;;;5094483;28;19955;-51
2023/12/03 08:42:44;;;;;;;;;;;18.90;35.50;;;;;;5108034;28;19932;-54
2023/12/03 08:45:11;;;;;;;;;;;18.90;35.50;;;;;;5095798;28;19931;-54
2023/12/03 08:47:37;;;;;;;;;;;18.90;35.50;;;;;;5097864;28;19924;-54
2023/12/03 08:50:05;;;;;;;;;;;18.90;35.60;;;;;;5098633;28;20381;-52
2023/12/03 08:52:32;;;;;;;;;;;18.90;35.50;;;;;;5097842;28;19969;-56
2023/12/03 08:55:00;;;;;;;;;;;18.90;35.50;;;;;;5099473;28;19973;-54
2023/12/03 08:57:26;;;;;;;;;;;18.90;35.50;;;;;;5095370;28;19931;-55
2023/12/03 08:59:55;;;;;;;;;;;18.90;36.10;;;;;;5098597;28;19927;-52
2023/12/03 09:02:23;;;;;;;;;;;18.90;35.50;;;;;;5106398;28;19928;-55
2023/12/03 09:04:51;;;;;;;;;;;18.90;35.50;;;;;;5109277;28;19935;-55
2023/12/03 09:07:17;;;;;;;;;;;18.90;35.50;;;;;;5095931;28;19924;-50
2023/12/03 09:09:44;;;;;;;;;;;18.90;35.50;;;;;;5090430;28;19977;-56
2023/12/03 09:12:11;;;;;;;;;;;18.90;35.50;;;;;;5098466;28;19935;-54
2023/12/03 09:14:38;;;;;;;;;;;18.90;35.50;;;;;;5088883;28;19924;-54
2023/12/03 09:17:06;;;;;;;;;;;18.90;35.50;;;;;;5092298;28;19932;-54
2023/12/03 09:19:33;;;;;;;;;;;18.90;35.50;;;;;;5092322;28;19930;-52
2023/12/03 09:21:59;;;;;;;;;;;18.90;35.50;;;;;;5104146;28;19946;-54
2023/12/03 09:24:26;;;;;;;;;;;18.90;35.50;;;;;;5091922;28;19931;-54
2023/12/03 09:26:53;;;;;;;;;;;18.90;35.60;;;;;;5086839;28;19924;-52
2023/12/03 09:29:20;;;;;;;;;;;18.90;35.60;;;;;;5111144;28;19924;-54
2023/12/03 09:31:47;;;;;;;;;;;18.90;35.60;;;;;;5105389;28;20005;-54
2023/12/03 09:34:15;;;;;;;;;;;18.90;35.60;;;;;;5108055;28;20243;-54
2023/12/03 09:36:42;;;;;;;;;;;18.90;35.70;;;;;;5100792;28;19924;-53
2023/12/03 09:39:09;;;;;;;;;;;18.90;35.70;;;;;;5090019;28;20000;-55
2023/12/03 09:41:36;;;;;;;;;;;18.90;35.80;;;;;;5095265;28;19928;-53
2023/12/03 09:44:04;;;;;;;;;;;18.90;36.00;;;;;;5097623;28;19966;-53
2023/12/03 09:46:31;;;;;;;;;;;18.90;35.80;;;;;;5091277;28;19932;-52
2023/12/03 09:48:59;;;;;;;;;;;18.90;35.80;;;;;;5105426;28;19924;-53
2023/12/03 09:51:27;;;;;;;;;;;18.90;35.80;;;;;;5111086;28;19927;-51
2023/12/03 09:53:53;;;;;;;;;;;18.90;35.90;;;;;;5107492;28;19928;-53
2023/12/03 09:56:20;;;;;;;;;;;19.00;36.00;;;;;;5096603;28;19924;-57
2023/12/03 09:58:47;;;;;;;;;;;19.00;36.00;;;;;;5097907;28;19931;-53
2023/12/03 10:01:14;;;;;;;;;;;18.90;35.90;;;;;;5094823;28;19924;-53
2023/12/03 10:03:41;;;;;;;;;;;19.00;36.00;;;;;;5077791;28;19924;-53
2023/12/03 10:06:08;;;;;;;;;;;19.00;36.00;;;;;;5104629;27;19924;-52
2023/12/03 10:08:37;;;;;;;;;;;18.90;36.00;;;;;;5096007;28;19940;-67
2023/12/03 10:11:04;;;;;;;;;;;19.00;36.10;;;;;;5093639;28;19969;-63
2023/12/03 10:13:30;;;;;;;;;;;19.00;35.80;;;;;;5090587;28;19931;-60
2023/12/03 10:15:57;;;;;;;;;;;19.00;33.70;;;;;;5094531;28;19927;-59
2023/12/03 10:18:24;;;;;;;;;;;18.90;33.10;;;;;;5104999;28;19930;-63
2023/12/03 10:20:52;;;;;;;;;;;18.90;32.90;;;;;;5094062;28;19991;-59
2023/12/03 10:23:19;;;;;;;;;;;18.80;32.60;;;;;;5091632;28;19986;-59
2023/12/03 10:25:47;;;;;;;;;;;18.80;32.50;;;;;;5103961;27;19932;-62
2023/12/03 10:28:14;;;;;;;;;;;18.80;32.40;;;;;;5090900;28;19973;-59
2023/12/03 10:30:41;;;;;;;;;;;18.70;32.20;;;;;;5096167;28;19928;-63
2023/12/03 10:33:11;;;;;;;;;;;18.70;32.20;;;;;;5097515;28;19935;-60
2023/12/03 10:35:38;;;;;;;;;;;18.70;32.10;;;;;;5095081;28;20031;-59
2023/12/03 10:38:06;;;;;;;;;;;18.70;32.10;;;;;;5094416;28;19991;-61
2023/12/03 10:40:33;;;;;;;;;;;18.60;31.90;;;;;;5095597;28;19932;-59
2023/12/03 10:43:01;;;;;;;;;;;18.60;31.90;;;;;;5092913;28;20011;-59
2023/12/03 10:45:28;;;;;;;;;;;18.60;31.80;;;;;;5097609;28;20349;-63
2023/12/03 10:47:55;;;;;;;;;;;18.50;31.70;;;;;;5104757;28;19935;-60
2023/12/03 10:50:22;;;;;;;;;;;18.50;31.70;;;;;;5097798;28;19945;-58
2023/12/03 10:52:49;;;;;;;;;;;18.50;31.70;;;;;;5094156;28;19930;-63
2023/12/03 10:55:16;;;;;;;;;;;18.50;31.70;;;;;;5103540;27;19938;-58
2023/12/03 10:57:44;;;;;;;;;;;18.50;31.70;;;;;;5098396;28;20298;-62
2023/12/03 11:00:13;;;;;;;;;;;18.50;31.70;;;;;;5112404;28;19923;-63
2023/12/03 11:02:40;;;;;;;;;;;18.50;31.70;;;;;;5109585;28;19928;-61
2023/12/03 11:05:07;;;;;;;;;;;18.50;31.70;;;;;;5093992;28;19931;-59
2023/12/03 11:07:34;;;;;;;;;;;18.40;31.60;;;;;;5096095;28;19927;-60
2023/12/03 11:10:01;;;;;;;;;;;18.40;31.60;;;;;;5094020;28;19947;-64
2023/12/03 11:12:28;;;;;;;;;;;18.40;31.60;;;;;;5093936;28;19939;-60
2023/12/03 11:14:55;;;;;;;;;;;18.40;31.60;;;;;;5113126;28;19924;-61
2023/12/03 11:17:25;;;;;;;;;;;18.40;31.60;;;;;;5097757;28;19924;-61
2023/12/03 11:19:52;;;;;;;;;;;18.40;31.60;;;;;;5094715;28;19945;-60
2023/12/03 11:22:21;;;;;;;;;;;18.30;31.50;;;;;;5094647;28;19951;-64
2023/12/03 11:24:50;;;;;;;;;;;18.30;31.60;;;;;;5094575;28;19931;-60
2023/12/03 11:27:17;;;;;;;;;;;18.30;31.50;;;;;;5094638;28;19935;-59
2023/12/03 11:29:47;;;;;;;;;;;18.30;31.50;;;;;;5099083;28;19931;-60
2023/12/03 11:32:14;;;;;;;;;;;18.30;31.50;;;;;;5088926;28;19930;-60
2023/12/03 11:34:42;;;;;;;;;;;18.30;31.50;;;;;;5094804;28;19927;-59
2023/12/03 11:37:09;;;;;;;;;;;18.30;31.50;;;;;;5094896;28;19938;-59
2023/12/03 11:39:38;;;;;;;;;;;18.30;31.60;;;;;;5095033;28;19930;-63
2023/12/03 11:42:06;;;;;;;;;;;18.20;31.50;;;;;;5101730;28;19932;-60
2023/12/03 11:44:33;;;;;;;;;;;18.20;31.50;;;;;;5096186;28;19931;-64
2023/12/03 11:47:03;;;;;;;;;;;18.20;31.50;;;;;;5106052;28;19923;-63
2023/12/03 11:49:30;;;;;;;;;;;18.20;31.50;;;;;;5097333;28;19927;-63
2023/12/03 11:51:58;;;;;;;;;;;18.20;31.60;;;;;;5109707;28;19997;-58
2023/12/03 11:54:25;;;;;;;;;;;18.20;31.60;;;;;;5112843;28;19927;-60
2023/12/03 11:56:52;;;;;;;;;;;18.20;31.60;;;;;;5092836;28;19928;-60
2023/12/03 11:59:19;;;;;;;;;;;18.20;31.60;;;;;;5112124;28;19928;-59
2023/12/03 12:01:46;;;;;;;;;;;18.20;31.60;;;;;;5096785;28;19927;-60
2023/12/03 12:04:20;;;;;;;;;;;18.10;31.50;;;;;;5112093;27;19977;-61
2023/12/03 12:06:46;;;;;;;;;;;18.10;31.50;;;;;;5093921;28;19931;-59
2023/12/03 12:09:15;;;;;;;;;;;18.10;31.60;;;;;;5112830;28;19924;-59
2023/12/03 12:11:41;;;;;;;;;;;18.10;31.60;;;;;;5095608;28;19989;-57
2023/12/03 12:14:08;;;;;;;;;;;18.10;31.70;;;;;;5086662;28;19927;-57
2023/12/03 12:16:36;;;;;;;;;;;18.10;32.10;;;;;;5097773;28;19993;-55
2023/12/03 12:19:04;;;;;;;;;;;18.10;32.70;;;;;;5100004;28;19924;-52
2023/12/03 12:21:30;;;;;;;;;;;18.20;32.80;;;;;;5097598;28;19928;-55
2023/12/03 12:23:57;;;;;;;;;;;18.20;33.00;;;;;;5091868;28;19932;-54
2023/12/03 12:26:25;;;;;;;;;;;18.20;33.20;;;;;;5111429;28;19951;-55
2023/12/03 12:28:52;;;;;;;;;;;18.30;33.50;;;;;;5109473;28;19924;-52
2023/12/03 12:31:24;;;;;;;;;;;18.30;33.60;;;;;;5093560;28;20392;-52
2023/12/03 12:33:51;;;;;;;;;;;18.30;33.70;;;;;;5090869;28;20045;-50
2023/12/03 12:36:18;;;;;;;;;;;18.30;33.90;;;;;;5103161;27;19935;-55
2023/12/03 12:38:44;;;;;;;;;;;18.40;34.00;;;;;;5093396;28;19924;-55
2023/12/03 12:41:13;;;;;;;;;;;18.40;34.10;;;;;;5090353;28;19928;-56
2023/12/03 12:43:53;;;;;;;;;;;18.40;34.10;;;;;;5092524;28;19930;-50
2023/12/03 12:46:20;;;;;;;;;;;18.50;34.40;;;;;;5092164;28;20024;-55
2023/12/03 12:48:47;;;;;;;;;;;18.50;34.40;;;;;;5095852;28;20013;-54
2023/12/03 12:51:22;;;;;;;;;;;18.50;34.50;;;;;;5090218;28;22529;-50
2023/12/03 12:53:56;;;;;;;;;;;18.50;34.50;;;;;;5086260;28;20007;-49
2023/12/03 12:56:23;;;;;;;;;;;18.50;34.50;;;;;;5093547;28;19924;-51
2023/12/03 12:58:49;;;;;;;;;;;18.60;34.70;;;;;;5097522;28;19928;-57
2023/12/03 13:01:18;;;;;;;;;;;18.60;34.70;;;;;;5107837;28;19976;-50
2023/12/03 13:03:44;;;;;;;;;;;18.60;34.70;;;;;;5088040;28;19932;-56
2023/12/03 13:06:11;;;;;;;;;;;18.60;34.80;;;;;;5092734;28;19998;-52
2023/12/03 13:08:38;;;;;;;;;;;18.70;34.80;;;;;;5108629;28;20000;-49
2023/12/03 13:11:05;;;;;;;;;;;18.70;34.80;;;;;;5110027;27;19928;-57
2023/12/03 13:13:32;;;;;;;;;;;18.70;34.90;;;;;;5108841;28;19936;-52
2023/12/03 13:16:00;;;;;;;;;;;18.70;35.00;;;;;;5108891;28;19924;-54
2023/12/03 13:18:29;;;;;;;;;;;18.70;35.00;;;;;;5091059;28;19942;-53
2023/12/03 13:20:56;;;;;;;;;;;18.70;35.00;;;;;;5088791;28;19923;-52
2023/12/03 13:23:23;;;;;;;;;;;18.70;35.00;;;;;;5083582;28;19939;-56
2023/12/03 13:25:50;;;;;;;;;;;18.70;35.00;;;;;;5108374;28;19923;-55
2023/12/03 13:28:17;;;;;;;;;;;18.80;35.10;;;;;;5090240;28;19931;-58
2023/12/03 13:30:44;;;;;;;;;;;18.70;35.10;;;;;;5092722;28;20373;-55
2023/12/03 13:33:11;;;;;;;;;;;18.80;35.20;;;;;;5083345;28;19928;-56
2023/12/03 13:35:39;;;;;;;;;;;18.80;35.20;;;;;;5088601;28;19927;-55
2023/12/03 13:38:06;;;;;;;;;;;18.80;35.20;;;;;;5107396;28;19923;-56
2023/12/03 13:40:33;;;;;;;;;;;18.80;35.20;;;;;;5093300;28;19930;-57
2023/12/03 13:42:59;;;;;;;;;;;18.80;35.30;;;;;;5104504;28;19931;-51
2023/12/03 13:45:26;;;;;;;;;;;18.80;35.30;;;;;;5100460;28;19924;-55
2023/12/03 13:47:53;;;;;;;;;;;18.80;35.40;;;;;;5099575;28;19924;-55
2023/12/03 13:50:20;;;;;;;;;;;18.80;35.30;;;;;;5102663;28;19928;-53
2023/12/03 13:52:49;;;;;;;;;;;18.80;35.40;;;;;;5110640;28;19923;-54
2023/12/03 13:55:15;;;;;;;;;;;18.80;35.40;;;;;;5111189;28;19987;-53
2023/12/03 13:57:42;;;;;;;;;;;18.80;35.40;;;;;;5097888;28;19927;-51
2023/12/03 14:00:09;;;;;;;;;;;18.80;35.40;;;;;;5102744;28;19934;-55
2023/12/03 14:02:36;;;;;;;;;;;18.80;35.40;;;;;;5093554;28;19927;-51
2023/12/03 14:05:03;;;;;;;;;;;18.80;35.40;;;;;;5093509;28;19924;-55
2023/12/03 14:07:30;;;;;;;;;;;18.80;35.40;;;;;;5099201;28;19973;-52
2023/12/03 14:09:58;;;;;;;;;;;18.80;35.40;;;;;;5109776;28;20365;-52
2023/12/03 14:12:25;;;;;;;;;;;18.80;35.40;;;;;;5093273;28;19928;-52
2023/12/03 14:14:51;;;;;;;;;;;18.80;35.40;;;;;;5100948;28;19977;-54